Ashville, Alabama
Current Conditions -  °F | °C
As of 9:55 AM on Thursday 27 Nov 2014 (Local Time) from KGAD Reporting Station
Overcast Overcast  
Wind Chill: 37°   Ceiling: 3600
Heat Index: 43°   Visibility: 10mi
Dew Point: 30°   Wind: 10mph
Humidity: 61%   Direction: 340°NNW
Pressure: 30.37"   Gusts: NA
Location:  33.84°N, 86.25°W
Report Text: KGAD 271555Z 34009KT 10SM SCT030 BKN036 OVC046 06/M01 A3037 RMK AO1
Loading
Personal Weather Stations






























Interactive Weather Map New forecast layout! Learn more

10-Day Weather Forecast

Advertisements
Track Severe Weather on mobile